createdAt,value
2019-04-28T00:02:38.616Z,98.20
2019-04-28T00:05:43.631Z,98.30
2019-04-28T00:08:48.694Z,98.80
2019-04-28T00:11:53.621Z,98.80
2019-04-28T00:14:58.631Z,98.40
2019-04-28T00:18:04.189Z,98.50
2019-04-28T00:21:28.602Z,98.40
2019-04-28T00:24:51.626Z,98.40
2019-04-28T00:27:56.595Z,98.30
2019-04-28T00:31:02.492Z,98.30
2019-04-28T00:34:07.802Z,98.30
2019-04-28T00:37:27.906Z,98.10
2019-04-28T00:40:32.905Z,98.30
2019-04-28T00:43:37.905Z,97.80
2019-04-28T00:46:44.385Z,97.40
2019-04-28T00:49:49.348Z,97.00
2019-04-28T00:52:54.698Z,96.50
2019-04-28T00:56:01.762Z,96.30
2019-04-28T00:59:06.389Z,96.60
2019-04-28T01:02:25.780Z,96.70
2019-04-28T01:05:31.210Z,97.00
2019-04-28T01:08:38.546Z,96.80
2019-04-28T01:11:43.460Z,96.80
2019-04-28T01:14:54.496Z,96.90
2019-04-28T01:18:05.213Z,97.00
2019-04-28T01:21:11.409Z,96.90
2019-04-28T01:24:16.562Z,96.70
2019-04-28T01:27:50.554Z,96.90
2019-04-28T01:31:14.914Z,96.70
2019-04-28T01:34:21.986Z,96.60
2019-04-28T01:37:26.970Z,96.50
2019-04-28T01:40:31.897Z,96.90
2019-04-28T01:43:36.818Z,96.40
2019-04-28T01:46:41.982Z,96.40
2019-04-28T01:49:46.984Z,96.70
2019-04-28T01:52:51.900Z,96.80
2019-04-28T01:55:56.889Z,96.90
2019-04-28T01:59:01.953Z,96.80
2019-04-28T02:02:07.200Z,97.00
2019-04-28T02:05:12.361Z,97.00
2019-04-28T02:08:17.351Z,97.30
2019-04-28T02:11:22.426Z,97.90
2019-04-28T02:14:27.345Z,97.70
2019-04-28T02:17:32.425Z,98.10
2019-04-28T02:20:39.738Z,98.10
2019-04-28T02:23:44.808Z,98.10
2019-04-28T02:26:50.391Z,98.10
2019-04-28T02:29:56.485Z,98.10
2019-04-28T02:33:01.879Z,97.80
2019-04-28T02:36:08.949Z,97.80
2019-04-28T02:39:13.771Z,97.80
2019-04-28T02:42:20.868Z,97.70
2019-04-28T02:45:25.597Z,97.80
2019-04-28T02:48:31.131Z,97.80
2019-04-28T02:51:41.288Z,97.80
2019-04-28T02:54:46.550Z,97.80
2019-04-28T02:57:51.880Z,97.80
2019-04-28T03:01:09.000Z,97.80
2019-04-28T03:04:03.806Z,97.90
2019-04-28T03:07:11.477Z,98.00
2019-04-28T03:10:15.669Z,98.10
2019-04-28T03:13:21.084Z,98.10
2019-04-28T03:16:26.308Z,98.40
2019-04-28T03:19:34.189Z,98.10
2019-04-28T03:22:40.152Z,97.90
2019-04-28T03:26:01.386Z,98.30
2019-04-28T03:29:12.338Z,98.50
2019-04-28T03:32:39.698Z,98.70
2019-04-28T03:35:33.430Z,98.50
2019-04-28T03:38:40.647Z,98.70
2019-04-28T03:41:45.181Z,98.80
2019-04-28T03:44:51.231Z,98.80
2019-04-28T03:47:56.357Z,98.90
2019-04-28T03:51:01.275Z,98.60
2019-04-28T03:54:06.176Z,98.40
2019-04-28T03:57:11.672Z,98.30
2019-04-28T04:00:18.425Z,98.40
2019-04-28T04:03:23.521Z,98.30
2019-04-28T04:06:30.939Z,98.40
2019-04-28T04:09:43.275Z,98.30
2019-04-28T04:13:00.883Z,98.30
2019-04-28T04:16:30.934Z,98.10
2019-04-28T04:19:37.183Z,98.30
2019-04-28T04:22:42.182Z,98.20
2019-04-28T04:25:47.194Z,98.30
2019-04-28T04:28:52.126Z,98.20
2019-04-28T04:32:13.446Z,98.20
2019-04-28T04:35:04.207Z,98.30
2019-04-28T04:38:10.458Z,98.10
2019-04-28T04:41:15.756Z,98.10
2019-04-28T04:44:21.614Z,97.90
2019-04-28T04:47:27.083Z,97.90
2019-04-28T04:50:32.664Z,97.90
2019-04-28T04:53:37.904Z,97.70
2019-04-28T04:56:43.124Z,98.00
2019-04-28T04:59:50.032Z,98.00
2019-04-28T05:03:01.564Z,98.20
2019-04-28T05:06:25.625Z,98.30
2019-04-28T05:09:31.198Z,98.90
2019-04-28T05:12:36.679Z,99.10
2019-04-28T05:15:41.737Z,99.30
2019-04-28T05:18:46.830Z,99.30
2019-04-28T05:21:52.123Z,99.50
2019-04-28T05:25:14.759Z,99.40
2019-04-28T05:28:19.978Z,99.80
2019-04-28T05:31:25.064Z,99.50
2019-04-28T05:34:30.145Z,99.30
2019-04-28T05:37:35.229Z,99.40
2019-04-28T05:40:40.417Z,99.40
2019-04-28T05:43:45.772Z,99.10
2019-04-28T05:46:51.587Z,99.10
2019-04-28T05:50:10.963Z,98.90
2019-04-28T05:53:25.089Z,98.60
2019-04-28T05:56:49.606Z,99.00
2019-04-28T06:00:32.158Z,98.70
2019-04-28T06:03:38.058Z,98.40
2019-04-28T06:06:45.255Z,98.40
2019-04-28T06:09:52.022Z,98.70
2019-04-28T06:12:57.215Z,98.80
2019-04-28T06:16:02.398Z,98.50
2019-04-28T06:19:09.760Z,98.20
2019-04-28T06:22:17.734Z,98.40
2019-04-28T06:25:21.796Z,98.30
2019-04-28T06:28:27.373Z,98.20
2019-04-28T06:31:32.272Z,98.00
2019-04-28T06:34:37.269Z,98.10
2019-04-28T06:37:42.254Z,97.60
2019-04-28T06:40:47.201Z,97.90
2019-04-28T06:43:52.197Z,97.60
2019-04-28T06:46:57.131Z,97.70
2019-04-28T06:50:02.290Z,98.10
2019-04-28T06:53:07.283Z,97.70
2019-04-28T06:56:12.270Z,97.70
2019-04-28T06:59:17.270Z,97.40
2019-04-28T07:02:22.354Z,97.10
2019-04-28T07:05:27.281Z,97.10
2019-04-28T07:08:32.296Z,96.60
2019-04-28T07:11:37.866Z,96.20
2019-04-28T07:14:43.171Z,95.90
2019-04-28T07:17:48.185Z,96.30
2019-04-28T07:21:10.910Z,96.10
2019-04-28T07:24:15.852Z,96.40
2019-04-28T07:27:21.476Z,96.40
2019-04-28T07:30:26.776Z,96.00
2019-04-28T07:33:36.100Z,94.60
2019-04-28T07:36:38.470Z,94.60
2019-04-28T07:39:43.460Z,94.50
2019-04-28T07:42:48.545Z,94.40
2019-04-28T07:45:53.605Z,94.10
2019-04-28T07:48:58.529Z,94.20
2019-04-28T07:52:14.615Z,93.90
2019-04-28T07:55:19.600Z,93.70
2019-04-28T07:58:24.630Z,93.90
2019-04-28T08:01:29.713Z,93.20
2019-04-28T08:04:34.701Z,92.60
2019-04-28T08:07:39.708Z,92.00
2019-04-28T08:10:44.778Z,92.10
2019-04-28T08:13:49.865Z,92.00
2019-04-28T08:16:54.865Z,91.20
2019-04-28T08:19:59.863Z,91.10
2019-04-28T08:23:04.963Z,90.70
2019-04-28T08:26:09.888Z,91.10
2019-04-28T08:29:14.973Z,89.20
2019-04-28T08:32:29.201Z,89.30
2019-04-28T08:35:34.233Z,89.80
2019-04-28T08:38:39.245Z,90.30
2019-04-28T08:41:44.342Z,91.20
2019-04-28T08:44:49.269Z,89.40
2019-04-28T08:47:54.263Z,88.90
2019-04-28T08:50:59.361Z,89.00
2019-04-28T08:54:04.521Z,89.60
2019-04-28T08:57:09.510Z,89.00
2019-04-28T09:00:15.657Z,88.10
2019-04-28T09:03:20.642Z,87.80
2019-04-28T09:06:25.638Z,88.50
2019-04-28T09:09:30.825Z,86.00
2019-04-28T09:12:35.886Z,84.60
2019-04-28T09:15:41.106Z,84.50
2019-04-28T09:18:46.037Z,85.00
2019-04-28T09:21:51.054Z,84.70
2019-04-28T09:24:56.157Z,84.00
2019-04-28T09:28:01.177Z,84.70
2019-04-28T09:31:06.641Z,85.50
2019-04-28T09:34:11.586Z,84.40
2019-04-28T09:37:16.713Z,81.70
2019-04-28T09:40:21.773Z,80.50
2019-04-28T09:43:45.945Z,78.90
2019-04-28T09:46:50.878Z,78.00
2019-04-28T09:49:55.945Z,77.00
2019-04-28T09:53:00.943Z,74.90
2019-04-28T09:56:05.939Z,75.70
2019-04-28T09:59:10.957Z,74.40
2019-04-28T10:02:15.878Z,74.70
2019-04-28T10:05:20.946Z,71.00
2019-04-28T10:08:25.947Z,71.00
2019-04-28T10:11:30.972Z,69.80
2019-04-28T10:14:36.093Z,66.00
2019-04-28T10:17:41.101Z,66.40
2019-04-28T10:20:46.257Z,64.00
2019-04-28T10:23:51.256Z,64.70
2019-04-28T10:26:56.163Z,65.60
2019-04-28T10:30:01.120Z,67.20
2019-04-28T10:33:06.115Z,66.60
2019-04-28T10:36:11.041Z,64.30
2019-04-28T10:39:33.281Z,63.50
2019-04-28T10:42:38.300Z,62.60
2019-04-28T10:45:52.301Z,62.40
2019-04-28T10:48:57.296Z,63.30
2019-04-28T10:52:02.353Z,64.70
2019-04-28T10:55:07.540Z,64.50
2019-04-28T10:58:12.631Z,63.60
2019-04-28T11:01:17.705Z,64.30
2019-04-28T11:04:40.667Z,65.60
2019-04-28T11:07:45.729Z,65.90
2019-04-28T11:10:50.730Z,64.80
2019-04-28T11:13:56.062Z,65.10
2019-04-28T11:17:01.072Z,65.20
2019-04-28T11:20:06.334Z,64.90
2019-04-28T11:23:11.298Z,64.60
2019-04-28T11:26:16.323Z,62.20
2019-04-28T11:29:21.492Z,61.80
2019-04-28T11:32:26.578Z,63.20
2019-04-28T11:35:32.402Z,63.70
2019-04-28T11:38:37.397Z,63.10
2019-04-28T11:41:42.414Z,63.90
2019-04-28T11:44:47.417Z,62.60
2019-04-28T11:47:52.497Z,62.30
2019-04-28T11:50:57.416Z,62.50
2019-04-28T11:54:02.519Z,62.30
2019-04-28T11:57:07.436Z,63.10
2019-04-28T12:00:30.693Z,61.60
2019-04-28T12:03:35.785Z,62.00
2019-04-28T12:06:40.804Z,60.30
2019-04-28T12:10:04.908Z,59.50
2019-04-28T12:13:14.793Z,60.10
2019-04-28T12:16:38.909Z,60.10
2019-04-28T12:19:47.346Z,59.40
2019-04-28T12:22:52.356Z,59.80
2019-04-28T12:25:57.297Z,58.40
2019-04-28T12:29:02.421Z,58.00
2019-04-28T12:32:07.481Z,56.30
2019-04-28T12:35:12.672Z,55.90
2019-04-28T12:38:17.601Z,56.50
2019-04-28T12:41:22.677Z,56.00
2019-04-28T12:44:27.742Z,55.10
2019-04-28T12:47:32.761Z,56.20
2019-04-28T12:50:43.781Z,56.30
2019-04-28T12:53:50.960Z,56.10
2019-04-28T12:56:56.033Z,54.70
2019-04-28T13:00:11.420Z,55.20
2019-04-28T13:03:28.029Z,55.40
2019-04-28T13:06:33.026Z,56.90
2019-04-28T13:09:38.161Z,58.00
2019-04-28T13:12:43.079Z,58.10
2019-04-28T13:15:48.111Z,59.30
2019-04-28T13:18:53.102Z,59.40
2019-04-28T13:21:58.185Z,58.30
2019-04-28T13:25:03.263Z,58.40
2019-04-28T13:28:08.290Z,59.00
2019-04-28T13:31:13.241Z,58.60
2019-04-28T13:34:19.996Z,58.70
2019-04-28T13:37:24.993Z,58.70
2019-04-28T13:40:32.295Z,59.00
2019-04-28T13:43:37.221Z,59.40
2019-04-28T13:46:42.138Z,59.70
2019-04-28T13:49:50.219Z,58.70
2019-04-28T13:52:55.286Z,59.10
2019-04-28T13:56:03.066Z,59.60
2019-04-28T13:59:13.913Z,59.30
2019-04-28T14:02:33.291Z,59.20
2019-04-28T14:05:51.881Z,58.70
2019-04-28T14:08:56.850Z,58.90
2019-04-28T14:12:01.918Z,58.10
2019-04-28T14:15:07.355Z,57.60
2019-04-28T14:18:12.347Z,57.70
2019-04-28T14:21:17.428Z,58.40
2019-04-28T14:24:22.429Z,59.50
2019-04-28T14:27:27.386Z,57.50
2019-04-28T14:30:32.456Z,56.40
2019-04-28T14:33:37.509Z,56.80
2019-04-28T14:36:44.818Z,54.80
2019-04-28T14:39:49.812Z,53.60
2019-04-28T14:42:54.786Z,52.80
2019-04-28T14:45:59.810Z,52.20
2019-04-28T14:49:05.097Z,51.60
2019-04-28T14:52:10.110Z,51.30
2019-04-28T14:55:15.283Z,50.30
2019-04-28T14:58:20.284Z,50.40
2019-04-28T15:01:44.535Z,50.70
2019-04-28T15:05:07.282Z,50.70
2019-04-28T15:08:37.166Z,50.50
2019-04-28T15:11:45.903Z,49.00
2019-04-28T15:14:50.982Z,49.40
2019-04-28T15:17:58.281Z,50.50
2019-04-28T15:21:03.678Z,50.40
2019-04-28T15:24:09.031Z,49.40
2019-04-28T15:27:14.468Z,48.20
2019-04-28T15:30:19.830Z,48.10
2019-04-28T15:33:25.250Z,48.60
2019-04-28T15:36:30.637Z,48.80
2019-04-28T15:39:36.070Z,49.60
2019-04-28T15:42:41.386Z,50.90
2019-04-28T15:45:46.814Z,52.20
2019-04-28T15:48:52.223Z,52.40
2019-04-28T15:51:57.659Z,52.60
2019-04-28T15:55:04.958Z,52.70
2019-04-28T15:58:28.277Z,54.30
2019-04-28T16:01:33.725Z,54.00
2019-04-28T16:04:39.172Z,54.80
2019-04-28T16:07:44.640Z,54.30
2019-04-28T16:10:50.045Z,53.90
2019-04-28T16:13:55.503Z,53.70
2019-04-28T16:17:01.425Z,53.50
2019-04-28T16:20:08.431Z,53.70
2019-04-28T16:23:14.474Z,54.10
2019-04-28T16:26:22.794Z,54.20
2019-04-28T16:29:26.986Z,54.20
2019-04-28T16:32:32.377Z,55.70
2019-04-28T16:35:37.748Z,56.10
2019-04-28T16:38:43.150Z,56.50
2019-04-28T16:41:57.899Z,56.90
2019-04-28T16:45:09.732Z,57.10
2019-04-28T16:48:15.162Z,56.90
2019-04-28T16:51:20.610Z,56.10
2019-04-28T16:54:25.933Z,56.10
2019-04-28T16:57:43.194Z,56.40
2019-04-28T17:01:13.770Z,56.60
2019-04-28T17:04:19.291Z,56.20
2019-04-28T17:07:25.545Z,56.10
2019-04-28T17:10:31.850Z,55.30
2019-04-28T17:13:37.621Z,55.00
2019-04-28T17:16:43.104Z,55.30
2019-04-28T17:19:48.578Z,56.20
2019-04-28T17:22:57.013Z,56.20
2019-04-28T17:26:05.436Z,57.10
2019-04-28T17:29:10.933Z,58.00
2019-04-28T17:32:16.186Z,58.70
2019-04-28T17:35:21.269Z,58.00
2019-04-28T17:38:26.517Z,58.30
2019-04-28T17:41:32.151Z,59.00
2019-04-28T17:44:38.299Z,57.70
2019-04-28T17:47:44.739Z,58.20
2019-04-28T17:50:50.063Z,59.60
2019-04-28T17:53:55.212Z,60.20
2019-04-28T17:57:00.299Z,59.70
2019-04-28T18:00:14.016Z,60.10
2019-04-28T18:03:29.591Z,60.60
2019-04-28T18:06:35.692Z,61.00
2019-04-28T18:09:41.114Z,60.90
2019-04-28T18:12:59.493Z,60.80
2019-04-28T18:16:27.380Z,60.90
2019-04-28T18:19:32.649Z,61.60
2019-04-28T18:22:37.674Z,62.30
2019-04-28T18:25:42.742Z,62.70
2019-04-28T18:28:47.746Z,63.50
2019-04-28T18:32:03.889Z,63.80
2019-04-28T18:35:19.250Z,64.50
2019-04-28T18:38:48.084Z,65.00
2019-04-28T18:42:14.747Z,65.70
2019-04-28T18:45:19.014Z,66.70
2019-04-28T18:48:23.934Z,67.60
2019-04-28T18:51:30.362Z,67.80
2019-04-28T18:54:37.508Z,67.90
2019-04-28T18:57:42.901Z,68.20
2019-04-28T19:00:57.288Z,68.60
2019-04-28T19:04:02.522Z,69.00
2019-04-28T19:07:09.326Z,69.30
2019-04-28T19:10:22.181Z,69.90
2019-04-28T19:13:30.077Z,70.40
2019-04-28T19:16:53.221Z,70.70
2019-04-28T19:19:59.261Z,71.00
2019-04-28T19:23:04.639Z,72.50
2019-04-28T19:26:09.725Z,73.10
2019-04-28T19:29:14.761Z,73.40
2019-04-28T19:32:19.816Z,74.70
2019-04-28T19:35:24.873Z,74.30
2019-04-28T19:38:30.004Z,74.50
2019-04-28T19:41:35.088Z,75.00
2019-04-28T19:44:40.513Z,75.90
2019-04-28T19:47:47.245Z,76.40
2019-04-28T19:50:53.854Z,76.50
2019-04-28T19:53:59.969Z,77.20
2019-04-28T19:57:10.473Z,77.90
2019-04-28T20:00:32.733Z,78.40
2019-04-28T20:03:37.734Z,78.80
2019-04-28T20:06:42.756Z,79.50
2019-04-28T20:09:47.734Z,79.80
2019-04-28T20:12:53.571Z,80.70
2019-04-28T20:15:58.636Z,81.40
2019-04-28T20:19:03.971Z,81.70
2019-04-28T20:22:10.830Z,82.30
2019-04-28T20:25:16.208Z,83.00
2019-04-28T20:28:21.268Z,83.20
2019-04-28T20:31:26.341Z,83.40
2019-04-28T20:34:31.271Z,84.80
2019-04-28T20:37:40.253Z,84.10
2019-04-28T20:40:54.749Z,84.10
2019-04-28T20:44:00.698Z,84.20
2019-04-28T20:47:05.637Z,84.80
2019-04-28T20:50:10.935Z,84.90
2019-04-28T20:53:16.197Z,85.00
2019-04-28T20:56:22.651Z,85.10
2019-04-28T20:59:27.595Z,85.10
2019-04-28T21:02:32.690Z,85.00
2019-04-28T21:05:37.629Z,84.70
2019-04-28T21:08:42.628Z,84.70
2019-04-28T21:11:47.581Z,84.60
2019-04-28T21:14:52.553Z,84.60
2019-04-28T21:17:57.576Z,85.30
2019-04-28T21:21:02.526Z,84.60
2019-04-28T21:24:07.517Z,84.50
2019-04-28T21:27:12.454Z,84.70
2019-04-28T21:30:17.670Z,85.00
2019-04-28T21:33:22.613Z,85.40
2019-04-28T21:36:27.542Z,85.70
2019-04-28T21:39:32.620Z,86.50
2019-04-28T21:42:55.587Z,85.70
2019-04-28T21:46:25.657Z,85.90
2019-04-28T21:49:32.789Z,86.20
2019-04-28T21:52:37.737Z,87.30
2019-04-28T21:55:42.683Z,86.80
2019-04-28T21:58:47.619Z,86.80
2019-04-28T22:01:52.713Z,87.80
2019-04-28T22:04:57.697Z,87.30
2019-04-28T22:08:02.702Z,87.30
2019-04-28T22:11:08.270Z,87.20
2019-04-28T22:14:13.468Z,87.20
2019-04-28T22:17:18.595Z,87.40
2019-04-28T22:20:23.521Z,87.80
2019-04-28T22:23:47.650Z,88.30
2019-04-28T22:26:53.517Z,88.60
2019-04-28T22:29:58.454Z,89.00
2019-04-28T22:33:03.564Z,89.00
2019-04-28T22:36:08.646Z,90.00
2019-04-28T22:39:13.794Z,89.30
2019-04-28T22:42:18.877Z,89.30
2019-04-28T22:45:23.966Z,89.40
2019-04-28T22:48:28.987Z,89.40
2019-04-28T22:51:34.163Z,89.40
2019-04-28T22:55:07.130Z,89.40
2019-04-28T22:58:19.956Z,89.80
2019-04-28T23:01:29.262Z,90.00
2019-04-28T23:04:38.591Z,90.50
2019-04-28T23:07:43.545Z,90.00
2019-04-28T23:10:48.567Z,90.00
2019-04-28T23:13:53.556Z,90.40
2019-04-28T23:16:58.756Z,90.00
2019-04-28T23:20:07.123Z,90.30
2019-04-28T23:23:12.286Z,90.00
2019-04-28T23:26:17.350Z,90.20
2019-04-28T23:29:22.421Z,90.40
2019-04-28T23:32:27.375Z,90.50
2019-04-28T23:35:32.351Z,90.40
2019-04-28T23:38:37.453Z,90.50
2019-04-28T23:41:54.858Z,90.80
2019-04-28T23:44:59.781Z,90.90
2019-04-28T23:48:04.974Z,91.20
2019-04-28T23:51:28.975Z,91.70
2019-04-28T23:54:34.440Z,91.80
2019-04-28T23:57:39.437Z,91.10
